sensor_id;sensor_type;location;lat;lon;timestamp;P1;durP1;ratioP1;P2;durP2;ratioP2
65717;SDS011;52445;52.466;-1.016;2022-11-20T00:01:19;8.63;;;4.40;;
65717;SDS011;52445;52.466;-1.016;2022-11-20T00:03:47;7.75;;;3.55;;
65717;SDS011;52445;52.466;-1.016;2022-11-20T00:06:15;7.25;;;3.50;;
65717;SDS011;52445;52.466;-1.016;2022-11-20T00:08:43;6.95;;;3.17;;
65717;SDS011;52445;52.466;-1.016;2022-11-20T00:11:11;9.05;;;3.40;;
65717;SDS011;52445;52.466;-1.016;2022-11-20T00:13:42;8.85;;;3.53;;
65717;SDS011;52445;52.466;-1.016;2022-11-20T00:16:10;5.18;;;3.08;;
65717;SDS011;52445;52.466;-1.016;2022-11-20T00:18:38;9.35;;;2.78;;
65717;SDS011;52445;52.466;-1.016;2022-11-20T00:21:06;5.38;;;2.30;;
65717;SDS011;52445;52.466;-1.016;2022-11-20T00:23:36;8.40;;;2.88;;
65717;SDS011;52445;52.466;-1.016;2022-11-20T00:26:03;10.50;;;3.25;;
65717;SDS011;52445;52.466;-1.016;2022-11-20T00:28:32;7.60;;;1.98;;
65717;SDS011;52445;52.466;-1.016;2022-11-20T00:31:07;5.03;;;3.00;;
65717;SDS011;52445;52.466;-1.016;2022-11-20T00:33:35;8.15;;;2.63;;
65717;SDS011;52445;52.466;-1.016;2022-11-20T00:36:04;8.95;;;3.33;;
65717;SDS011;52445;52.466;-1.016;2022-11-20T00:38:33;11.70;;;3.85;;
65717;SDS011;52445;52.466;-1.016;2022-11-20T00:41:01;3.72;;;2.90;;
65717;SDS011;52445;52.466;-1.016;2022-11-20T00:43:30;8.68;;;3.70;;
65717;SDS011;52445;52.466;-1.016;2022-11-20T00:45:57;8.85;;;3.20;;
65717;SDS011;52445;52.466;-1.016;2022-11-20T00:48:25;7.72;;;3.67;;
65717;SDS011;52445;52.466;-1.016;2022-11-20T00:50:53;7.85;;;3.78;;
65717;SDS011;52445;52.466;-1.016;2022-11-20T00:53:19;13.35;;;3.95;;
65717;SDS011;52445;52.466;-1.016;2022-11-20T00:56:03;9.18;;;3.20;;
65717;SDS011;52445;52.466;-1.016;2022-11-20T00:58:32;8.10;;;3.45;;
65717;SDS011;52445;52.466;-1.016;2022-11-20T01:01:04;9.70;;;3.63;;
65717;SDS011;52445;52.466;-1.016;2022-11-20T01:03:37;8.00;;;3.85;;
65717;SDS011;52445;52.466;-1.016;2022-11-20T01:06:06;11.95;;;3.60;;
65717;SDS011;52445;52.466;-1.016;2022-11-20T01:08:48;6.43;;;3.85;;
65717;SDS011;52445;52.466;-1.016;2022-11-20T01:11:18;8.73;;;3.05;;
65717;SDS011;52445;52.466;-1.016;2022-11-20T01:13:47;7.60;;;4.05;;
65717;SDS011;52445;52.466;-1.016;2022-11-20T01:16:16;8.80;;;2.17;;
65717;SDS011;52445;52.466;-1.016;2022-11-20T01:18:47;8.10;;;3.58;;
65717;SDS011;52445;52.466;-1.016;2022-11-20T01:21:18;7.22;;;2.80;;
65717;SDS011;52445;52.466;-1.016;2022-11-20T01:23:54;4.10;;;2.35;;
65717;SDS011;52445;52.466;-1.016;2022-11-20T01:26:22;8.23;;;3.22;;
65717;SDS011;52445;52.466;-1.016;2022-11-20T01:28:51;10.25;;;2.70;;
65717;SDS011;52445;52.466;-1.016;2022-11-20T01:31:20;6.95;;;2.17;;
65717;SDS011;52445;52.466;-1.016;2022-11-20T01:33:50;5.88;;;2.20;;
65717;SDS011;52445;52.466;-1.016;2022-11-20T01:36:19;8.23;;;2.30;;
65717;SDS011;52445;52.466;-1.016;2022-11-20T01:38:47;5.35;;;2.05;;
65717;SDS011;52445;52.466;-1.016;2022-11-20T01:41:14;8.50;;;2.38;;
65717;SDS011;52445;52.466;-1.016;2022-11-20T01:44:02;7.38;;;2.22;;
65717;SDS011;52445;52.466;-1.016;2022-11-20T01:46:31;9.02;;;2.10;;
65717;SDS011;52445;52.466;-1.016;2022-11-20T01:49:04;7.55;;;2.85;;
65717;SDS011;52445;52.466;-1.016;2022-11-20T01:51:54;7.32;;;2.45;;
65717;SDS011;52445;52.466;-1.016;2022-11-20T01:54:29;6.90;;;2.17;;
65717;SDS011;52445;52.466;-1.016;2022-11-20T01:57:05;5.93;;;2.20;;
65717;SDS011;52445;52.466;-1.016;2022-11-20T01:59:35;8.35;;;2.55;;
65717;SDS011;52445;52.466;-1.016;2022-11-20T02:02:07;7.22;;;2.92;;
65717;SDS011;52445;52.466;-1.016;2022-11-20T02:04:34;4.28;;;2.20;;
65717;SDS011;52445;52.466;-1.016;2022-11-20T02:07:02;9.10;;;3.17;;
65717;SDS011;52445;52.466;-1.016;2022-11-20T02:09:31;10.07;;;3.20;;
65717;SDS011;52445;52.466;-1.016;2022-11-20T02:11:58;9.38;;;3.72;;
65717;SDS011;52445;52.466;-1.016;2022-11-20T02:14:25;8.43;;;2.47;;
65717;SDS011;52445;52.466;-1.016;2022-11-20T02:16:53;7.30;;;2.38;;
65717;SDS011;52445;52.466;-1.016;2022-11-20T02:19:24;6.90;;;3.17;;
65717;SDS011;52445;52.466;-1.016;2022-11-20T02:24:29;8.35;;;2.60;;
65717;SDS011;52445;52.466;-1.016;2022-11-20T02:27:01;5.72;;;2.80;;
65717;SDS011;52445;52.466;-1.016;2022-11-20T02:29:32;8.10;;;4.10;;
65717;SDS011;52445;52.466;-1.016;2022-11-20T02:32:19;9.30;;;2.70;;
65717;SDS011;52445;52.466;-1.016;2022-11-20T02:34:57;6.53;;;2.78;;
65717;SDS011;52445;52.466;-1.016;2022-11-20T02:37:26;6.75;;;2.13;;
65717;SDS011;52445;52.466;-1.016;2022-11-20T02:39:58;10.10;;;3.00;;
65717;SDS011;52445;52.466;-1.016;2022-11-20T02:42:25;7.15;;;2.25;;
65717;SDS011;52445;52.466;-1.016;2022-11-20T02:44:51;8.65;;;3.05;;
65717;SDS011;52445;52.466;-1.016;2022-11-20T02:47:18;8.65;;;2.42;;
65717;SDS011;52445;52.466;-1.016;2022-11-20T02:49:45;11.05;;;3.53;;
65717;SDS011;52445;52.466;-1.016;2022-11-20T02:52:11;7.22;;;3.40;;
65717;SDS011;52445;52.466;-1.016;2022-11-20T02:54:38;7.90;;;2.45;;
65717;SDS011;52445;52.466;-1.016;2022-11-20T02:57:04;7.95;;;2.53;;
65717;SDS011;52445;52.466;-1.016;2022-11-20T02:59:31;7.55;;;2.50;;
65717;SDS011;52445;52.466;-1.016;2022-11-20T03:01:57;8.20;;;2.63;;
65717;SDS011;52445;52.466;-1.016;2022-11-20T03:04:24;4.03;;;1.85;;
65717;SDS011;52445;52.466;-1.016;2022-11-20T03:06:50;6.32;;;2.58;;
65717;SDS011;52445;52.466;-1.016;2022-11-20T03:09:17;5.13;;;1.95;;
65717;SDS011;52445;52.466;-1.016;2022-11-20T03:11:44;6.45;;;1.88;;
65717;SDS011;52445;52.466;-1.016;2022-11-20T03:14:11;6.63;;;2.13;;
65717;SDS011;52445;52.466;-1.016;2022-11-20T03:16:37;2.70;;;1.20;;
65717;SDS011;52445;52.466;-1.016;2022-11-20T03:19:04;8.60;;;1.90;;
65717;SDS011;52445;52.466;-1.016;2022-11-20T03:21:32;4.32;;;1.92;;
65717;SDS011;52445;52.466;-1.016;2022-11-20T03:23:59;4.68;;;1.83;;
65717;SDS011;52445;52.466;-1.016;2022-11-20T03:26:26;7.28;;;1.98;;
65717;SDS011;52445;52.466;-1.016;2022-11-20T03:28:55;4.10;;;1.90;;
65717;SDS011;52445;52.466;-1.016;2022-11-20T03:31:24;3.97;;;1.67;;
65717;SDS011;52445;52.466;-1.016;2022-11-20T03:33:52;3.35;;;1.52;;
65717;SDS011;52445;52.466;-1.016;2022-11-20T03:36:19;3.42;;;1.45;;
65717;SDS011;52445;52.466;-1.016;2022-11-20T03:38:47;5.45;;;1.02;;
65717;SDS011;52445;52.466;-1.016;2022-11-20T03:41:18;3.55;;;1.90;;
65717;SDS011;52445;52.466;-1.016;2022-11-20T03:43:55;3.78;;;1.75;;
65717;SDS011;52445;52.466;-1.016;2022-11-20T03:46:23;5.03;;;1.30;;
65717;SDS011;52445;52.466;-1.016;2022-11-20T03:48:51;8.38;;;2.08;;
65717;SDS011;52445;52.466;-1.016;2022-11-20T03:51:19;6.88;;;2.10;;
65717;SDS011;52445;52.466;-1.016;2022-11-20T03:56:16;6.28;;;1.63;;
65717;SDS011;52445;52.466;-1.016;2022-11-20T03:58:44;4.03;;;1.42;;
65717;SDS011;52445;52.466;-1.016;2022-11-20T04:01:11;4.30;;;1.60;;
65717;SDS011;52445;52.466;-1.016;2022-11-20T04:03:40;4.53;;;1.42;;
65717;SDS011;52445;52.466;-1.016;2022-11-20T04:06:09;2.30;;;1.30;;
65717;SDS011;52445;52.466;-1.016;2022-11-20T04:08:38;5.13;;;1.52;;
65717;SDS011;52445;52.466;-1.016;2022-11-20T04:13:46;2.05;;;1.23;;
65717;SDS011;52445;52.466;-1.016;2022-11-20T04:16:14;5.32;;;1.38;;
65717;SDS011;52445;52.466;-1.016;2022-11-20T04:18:42;3.85;;;0.95;;
65717;SDS011;52445;52.466;-1.016;2022-11-20T04:21:10;5.18;;;1.45;;
65717;SDS011;52445;52.466;-1.016;2022-11-20T04:23:37;2.67;;;1.08;;
65717;SDS011;52445;52.466;-1.016;2022-11-20T04:28:39;3.00;;;1.95;;
65717;SDS011;52445;52.466;-1.016;2022-11-20T04:31:08;4.47;;;1.92;;
65717;SDS011;52445;52.466;-1.016;2022-11-20T04:33:36;3.70;;;1.45;;
65717;SDS011;52445;52.466;-1.016;2022-11-20T04:36:05;4.25;;;1.73;;
65717;SDS011;52445;52.466;-1.016;2022-11-20T04:38:37;3.20;;;1.05;;
65717;SDS011;52445;52.466;-1.016;2022-11-20T04:41:05;7.25;;;1.52;;
65717;SDS011;52445;52.466;-1.016;2022-11-20T04:43:33;5.93;;;1.23;;
65717;SDS011;52445;52.466;-1.016;2022-11-20T04:46:00;2.97;;;1.63;;
65717;SDS011;52445;52.466;-1.016;2022-11-20T04:48:28;3.35;;;1.27;;
65717;SDS011;52445;52.466;-1.016;2022-11-20T04:50:55;3.85;;;2.00;;
65717;SDS011;52445;52.466;-1.016;2022-11-20T04:53:22;2.28;;;1.13;;
65717;SDS011;52445;52.466;-1.016;2022-11-20T04:55:50;4.38;;;2.05;;
65717;SDS011;52445;52.466;-1.016;2022-11-20T04:58:16;4.07;;;1.58;;
65717;SDS011;52445;52.466;-1.016;2022-11-20T05:00:43;3.42;;;1.75;;
65717;SDS011;52445;52.466;-1.016;2022-11-20T05:03:10;1.65;;;1.00;;
65717;SDS011;52445;52.466;-1.016;2022-11-20T05:05:36;3.15;;;1.80;;
65717;SDS011;52445;52.466;-1.016;2022-11-20T05:08:03;4.00;;;1.90;;
65717;SDS011;52445;52.466;-1.016;2022-11-20T05:10:30;5.55;;;2.38;;
65717;SDS011;52445;52.466;-1.016;2022-11-20T05:12:56;6.72;;;2.40;;
65717;SDS011;52445;52.466;-1.016;2022-11-20T05:15:23;6.70;;;2.72;;
65717;SDS011;52445;52.466;-1.016;2022-11-20T05:17:50;5.38;;;2.42;;
65717;SDS011;52445;52.466;-1.016;2022-11-20T05:20:17;7.18;;;2.92;;
65717;SDS011;52445;52.466;-1.016;2022-11-20T05:22:45;8.02;;;4.72;;
65717;SDS011;52445;52.466;-1.016;2022-11-20T05:25:12;6.85;;;3.35;;
65717;SDS011;52445;52.466;-1.016;2022-11-20T05:27:38;6.90;;;3.20;;
65717;SDS011;52445;52.466;-1.016;2022-11-20T05:30:05;9.57;;;3.63;;
65717;SDS011;52445;52.466;-1.016;2022-11-20T05:32:33;8.77;;;3.47;;
65717;SDS011;52445;52.466;-1.016;2022-11-20T05:34:59;8.30;;;3.28;;
65717;SDS011;52445;52.466;-1.016;2022-11-20T05:37:26;9.38;;;3.75;;
65717;SDS011;52445;52.466;-1.016;2022-11-20T05:39:52;6.45;;;3.58;;
65717;SDS011;52445;52.466;-1.016;2022-11-20T05:42:19;6.97;;;3.22;;
65717;SDS011;52445;52.466;-1.016;2022-11-20T05:45:02;9.18;;;4.00;;
65717;SDS011;52445;52.466;-1.016;2022-11-20T05:47:32;7.63;;;3.30;;
65717;SDS011;52445;52.466;-1.016;2022-11-20T05:49:59;6.15;;;3.13;;
65717;SDS011;52445;52.466;-1.016;2022-11-20T05:52:29;6.93;;;3.28;;
65717;SDS011;52445;52.466;-1.016;2022-11-20T05:54:56;5.65;;;3.05;;
65717;SDS011;52445;52.466;-1.016;2022-11-20T05:57:23;9.70;;;3.03;;
65717;SDS011;52445;52.466;-1.016;2022-11-20T05:59:50;6.13;;;3.35;;
65717;SDS011;52445;52.466;-1.016;2022-11-20T06:02:16;8.25;;;3.38;;
65717;SDS011;52445;52.466;-1.016;2022-11-20T06:04:43;8.10;;;3.47;;
65717;SDS011;52445;52.466;-1.016;2022-11-20T06:07:10;8.65;;;3.10;;
65717;SDS011;52445;52.466;-1.016;2022-11-20T06:09:36;8.52;;;3.45;;
65717;SDS011;52445;52.466;-1.016;2022-11-20T06:12:03;12.40;;;4.93;;
65717;SDS011;52445;52.466;-1.016;2022-11-20T06:14:30;9.57;;;4.05;;
65717;SDS011;52445;52.466;-1.016;2022-11-20T06:16:56;7.35;;;3.45;;
65717;SDS011;52445;52.466;-1.016;2022-11-20T06:19:23;8.55;;;3.75;;
65717;SDS011;52445;52.466;-1.016;2022-11-20T06:21:50;6.63;;;3.33;;
65717;SDS011;52445;52.466;-1.016;2022-11-20T06:24:17;7.00;;;2.45;;
65717;SDS011;52445;52.466;-1.016;2022-11-20T06:26:44;7.88;;;2.72;;
65717;SDS011;52445;52.466;-1.016;2022-11-20T06:29:10;8.68;;;3.75;;
65717;SDS011;52445;52.466;-1.016;2022-11-20T06:31:37;5.90;;;2.42;;
65717;SDS011;52445;52.466;-1.016;2022-11-20T06:34:04;7.45;;;3.13;;
65717;SDS011;52445;52.466;-1.016;2022-11-20T06:36:32;6.78;;;3.20;;
65717;SDS011;52445;52.466;-1.016;2022-11-20T06:38:59;8.75;;;2.67;;
65717;SDS011;52445;52.466;-1.016;2022-11-20T06:41:26;9.52;;;2.28;;
65717;SDS011;52445;52.466;-1.016;2022-11-20T06:43:54;6.55;;;3.13;;
65717;SDS011;52445;52.466;-1.016;2022-11-20T06:46:20;5.85;;;2.55;;
65717;SDS011;52445;52.466;-1.016;2022-11-20T06:48:48;8.43;;;3.80;;
65717;SDS011;52445;52.466;-1.016;2022-11-20T06:51:15;5.45;;;2.95;;
65717;SDS011;52445;52.466;-1.016;2022-11-20T06:53:42;11.77;;;2.90;;
65717;SDS011;52445;52.466;-1.016;2022-11-20T06:56:09;9.02;;;2.50;;
65717;SDS011;52445;52.466;-1.016;2022-11-20T06:58:35;8.43;;;2.92;;
65717;SDS011;52445;52.466;-1.016;2022-11-20T07:01:04;9.38;;;2.28;;
65717;SDS011;52445;52.466;-1.016;2022-11-20T07:03:34;6.35;;;2.28;;
65717;SDS011;52445;52.466;-1.016;2022-11-20T07:06:01;8.10;;;2.53;;
65717;SDS011;52445;52.466;-1.016;2022-11-20T07:08:28;5.15;;;2.38;;
65717;SDS011;52445;52.466;-1.016;2022-11-20T07:10:57;5.30;;;2.28;;
65717;SDS011;52445;52.466;-1.016;2022-11-20T07:13:26;8.32;;;2.40;;
65717;SDS011;52445;52.466;-1.016;2022-11-20T07:15:53;5.15;;;2.20;;
65717;SDS011;52445;52.466;-1.016;2022-11-20T07:18:20;6.70;;;2.30;;
65717;SDS011;52445;52.466;-1.016;2022-11-20T07:20:47;6.78;;;2.33;;
65717;SDS011;52445;52.466;-1.016;2022-11-20T07:23:14;5.38;;;2.25;;
65717;SDS011;52445;52.466;-1.016;2022-11-20T07:25:40;5.82;;;1.98;;
65717;SDS011;52445;52.466;-1.016;2022-11-20T07:28:07;6.88;;;2.00;;
65717;SDS011;52445;52.466;-1.016;2022-11-20T07:30:33;4.70;;;2.92;;
65717;SDS011;52445;52.466;-1.016;2022-11-20T07:33:00;4.40;;;1.25;;
65717;SDS011;52445;52.466;-1.016;2022-11-20T07:35:27;5.63;;;1.30;;
65717;SDS011;52445;52.466;-1.016;2022-11-20T07:37:53;4.30;;;2.33;;
65717;SDS011;52445;52.466;-1.016;2022-11-20T07:40:20;8.18;;;1.92;;
65717;SDS011;52445;52.466;-1.016;2022-11-20T07:42:48;8.10;;;1.88;;
65717;SDS011;52445;52.466;-1.016;2022-11-20T07:45:24;9.82;;;3.17;;
65717;SDS011;52445;52.466;-1.016;2022-11-20T07:47:51;6.20;;;3.25;;
65717;SDS011;52445;52.466;-1.016;2022-11-20T07:50:18;6.47;;;3.50;;
65717;SDS011;52445;52.466;-1.016;2022-11-20T07:52:45;7.88;;;3.15;;
65717;SDS011;52445;52.466;-1.016;2022-11-20T07:55:12;10.90;;;5.45;;
65717;SDS011;52445;52.466;-1.016;2022-11-20T07:57:39;42.78;;;16.10;;
65717;SDS011;52445;52.466;-1.016;2022-11-20T08:00:06;24.65;;;12.50;;
65717;SDS011;52445;52.466;-1.016;2022-11-20T08:02:36;15.75;;;9.80;;
65717;SDS011;52445;52.466;-1.016;2022-11-20T08:05:05;12.70;;;6.47;;
65717;SDS011;52445;52.466;-1.016;2022-11-20T08:07:40;12.50;;;7.72;;
65717;SDS011;52445;52.466;-1.016;2022-11-20T08:10:10;12.23;;;6.03;;
65717;SDS011;52445;52.466;-1.016;2022-11-20T08:12:43;27.77;;;9.82;;
65717;SDS011;52445;52.466;-1.016;2022-11-20T08:15:32;30.38;;;7.95;;
65717;SDS011;52445;52.466;-1.016;2022-11-20T08:18:01;25.33;;;7.57;;
65717;SDS011;52445;52.466;-1.016;2022-11-20T08:20:49;27.23;;;7.40;;
65717;SDS011;52445;52.466;-1.016;2022-11-20T08:23:16;17.05;;;6.18;;
65717;SDS011;52445;52.466;-1.016;2022-11-20T08:25:43;19.10;;;8.10;;
65717;SDS011;52445;52.466;-1.016;2022-11-20T08:28:09;14.95;;;5.25;;
65717;SDS011;52445;52.466;-1.016;2022-11-20T08:30:46;13.65;;;4.88;;
65717;SDS011;52445;52.466;-1.016;2022-11-20T08:33:12;15.65;;;6.05;;
65717;SDS011;52445;52.466;-1.016;2022-11-20T08:35:39;15.70;;;4.40;;
65717;SDS011;52445;52.466;-1.016;2022-11-20T08:38:08;15.10;;;4.95;;
65717;SDS011;52445;52.466;-1.016;2022-11-20T08:40:35;17.55;;;5.38;;
65717;SDS011;52445;52.466;-1.016;2022-11-20T08:43:02;21.92;;;5.80;;
65717;SDS011;52445;52.466;-1.016;2022-11-20T08:45:28;16.88;;;4.72;;
65717;SDS011;52445;52.466;-1.016;2022-11-20T08:48:00;22.13;;;6.05;;
65717;SDS011;52445;52.466;-1.016;2022-11-20T08:50:27;17.83;;;5.45;;
65717;SDS011;52445;52.466;-1.016;2022-11-20T08:52:54;19.05;;;5.57;;
65717;SDS011;52445;52.466;-1.016;2022-11-20T08:55:21;13.10;;;4.40;;
65717;SDS011;52445;52.466;-1.016;2022-11-20T08:57:47;14.73;;;4.60;;
65717;SDS011;52445;52.466;-1.016;2022-11-20T09:00:16;19.38;;;5.68;;
65717;SDS011;52445;52.466;-1.016;2022-11-20T09:02:43;19.65;;;4.07;;
65717;SDS011;52445;52.466;-1.016;2022-11-20T09:05:10;14.70;;;4.80;;
65717;SDS011;52445;52.466;-1.016;2022-11-20T09:07:36;15.48;;;3.97;;
65717;SDS011;52445;52.466;-1.016;2022-11-20T09:10:03;14.15;;;4.57;;
65717;SDS011;52445;52.466;-1.016;2022-11-20T09:12:50;13.32;;;3.70;;
65717;SDS011;52445;52.466;-1.016;2022-11-20T09:15:18;18.00;;;5.40;;
65717;SDS011;52445;52.466;-1.016;2022-11-20T09:17:53;16.98;;;4.78;;
65717;SDS011;52445;52.466;-1.016;2022-11-20T09:20:20;9.68;;;2.78;;
65717;SDS011;52445;52.466;-1.016;2022-11-20T09:22:48;16.90;;;3.30;;
65717;SDS011;52445;52.466;-1.016;2022-11-20T09:25:15;9.85;;;3.58;;
65717;SDS011;52445;52.466;-1.016;2022-11-20T09:27:42;13.98;;;3.08;;
65717;SDS011;52445;52.466;-1.016;2022-11-20T09:30:10;20.33;;;4.63;;
65717;SDS011;52445;52.466;-1.016;2022-11-20T09:32:39;15.90;;;4.30;;
65717;SDS011;52445;52.466;-1.016;2022-11-20T09:35:06;19.63;;;3.70;;
65717;SDS011;52445;52.466;-1.016;2022-11-20T09:37:33;13.93;;;4.00;;
65717;SDS011;52445;52.466;-1.016;2022-11-20T09:39:59;17.52;;;3.78;;
65717;SDS011;52445;52.466;-1.016;2022-11-20T09:55:51;13.63;;;3.60;;
65717;SDS011;52445;52.466;-1.016;2022-11-20T09:58:27;11.70;;;4.53;;
65717;SDS011;52445;52.466;-1.016;2022-11-20T10:06:46;11.30;;;4.03;;
65717;SDS011;52445;52.466;-1.016;2022-11-20T10:09:40;13.25;;;4.25;;
65717;SDS011;52445;52.466;-1.016;2022-11-20T10:12:25;11.68;;;4.43;;
65717;SDS011;52445;52.466;-1.016;2022-11-20T10:15:15;10.80;;;3.33;;
65717;SDS011;52445;52.466;-1.016;2022-11-20T10:26:02;9.75;;;2.08;;
65717;SDS011;52445;52.466;-1.016;2022-11-20T10:28:46;10.35;;;2.65;;
65717;SDS011;52445;52.466;-1.016;2022-11-20T10:31:36;10.85;;;2.10;;
65717;SDS011;52445;52.466;-1.016;2022-11-20T10:34:12;14.50;;;2.85;;
65717;SDS011;52445;52.466;-1.016;2022-11-20T10:36:58;10.00;;;2.60;;
65717;SDS011;52445;52.466;-1.016;2022-11-20T10:39:32;7.05;;;2.30;;
65717;SDS011;52445;52.466;-1.016;2022-11-20T10:42:11;20.20;;;6.47;;
65717;SDS011;52445;52.466;-1.016;2022-11-20T10:44:43;9.70;;;3.08;;
65717;SDS011;52445;52.466;-1.016;2022-11-20T10:47:32;19.58;;;3.88;;
65717;SDS011;52445;52.466;-1.016;2022-11-20T10:50:01;23.80;;;5.72;;
65717;SDS011;52445;52.466;-1.016;2022-11-20T10:55:27;15.52;;;2.50;;
65717;SDS011;52445;52.466;-1.016;2022-11-20T10:58:10;20.15;;;3.47;;
65717;SDS011;52445;52.466;-1.016;2022-11-20T11:00:50;27.63;;;6.78;;
65717;SDS011;52445;52.466;-1.016;2022-11-20T11:03:20;20.25;;;6.70;;
65717;SDS011;52445;52.466;-1.016;2022-11-20T11:05:54;23.77;;;6.90;;
65717;SDS011;52445;52.466;-1.016;2022-11-20T11:08:31;35.45;;;10.95;;
65717;SDS011;52445;52.466;-1.016;2022-11-20T11:11:09;19.45;;;7.30;;
65717;SDS011;52445;52.466;-1.016;2022-11-20T11:14:07;25.25;;;7.28;;
65717;SDS011;52445;52.466;-1.016;2022-11-20T11:16:40;19.92;;;5.63;;
65717;SDS011;52445;52.466;-1.016;2022-11-20T11:19:17;10.60;;;2.58;;
65717;SDS011;52445;52.466;-1.016;2022-11-20T11:21:46;18.95;;;3.70;;
65717;SDS011;52445;52.466;-1.016;2022-11-20T11:26:58;15.98;;;3.45;;
65717;SDS011;52445;52.466;-1.016;2022-11-20T11:29:30;15.40;;;3.45;;
65717;SDS011;52445;52.466;-1.016;2022-11-20T11:34:40;23.27;;;7.68;;
65717;SDS011;52445;52.466;-1.016;2022-11-20T11:37:13;13.15;;;2.97;;
65717;SDS011;52445;52.466;-1.016;2022-11-20T11:39:44;16.20;;;2.92;;
65717;SDS011;52445;52.466;-1.016;2022-11-20T11:42:29;6.50;;;1.95;;
65717;SDS011;52445;52.466;-1.016;2022-11-20T11:44:57;11.88;;;1.83;;
65717;SDS011;52445;52.466;-1.016;2022-11-20T11:52:53;14.68;;;2.80;;
65717;SDS011;52445;52.466;-1.016;2022-11-20T11:55:35;4.85;;;2.00;;
65717;SDS011;52445;52.466;-1.016;2022-11-20T12:06:58;11.55;;;3.88;;
65717;SDS011;52445;52.466;-1.016;2022-11-20T12:09:52;10.98;;;3.42;;
65717;SDS011;52445;52.466;-1.016;2022-11-20T12:12:37;12.65;;;2.88;;
65717;SDS011;52445;52.466;-1.016;2022-11-20T12:15:10;10.05;;;3.45;;
65717;SDS011;52445;52.466;-1.016;2022-11-20T12:17:39;9.10;;;3.13;;
65717;SDS011;52445;52.466;-1.016;2022-11-20T12:20:11;9.23;;;3.65;;
65717;SDS011;52445;52.466;-1.016;2022-11-20T12:22:49;9.20;;;1.20;;
65717;SDS011;52445;52.466;-1.016;2022-11-20T12:25:25;8.52;;;2.83;;
65717;SDS011;52445;52.466;-1.016;2022-11-20T12:27:59;8.38;;;2.63;;
65717;SDS011;52445;52.466;-1.016;2022-11-20T12:30:42;11.63;;;2.00;;
65717;SDS011;52445;52.466;-1.016;2022-11-20T12:33:29;11.60;;;1.33;;
65717;SDS011;52445;52.466;-1.016;2022-11-20T12:39:07;13.30;;;2.22;;
65717;SDS011;52445;52.466;-1.016;2022-11-20T12:41:51;10.68;;;1.10;;
65717;SDS011;52445;52.466;-1.016;2022-11-20T12:53:33;11.10;;;2.15;;
65717;SDS011;52445;52.466;-1.016;2022-11-20T13:07:47;11.70;;;2.80;;
65717;SDS011;52445;52.466;-1.016;2022-11-20T13:10:25;13.15;;;3.35;;
65717;SDS011;52445;52.466;-1.016;2022-11-20T13:12:59;12.38;;;2.38;;
65717;SDS011;52445;52.466;-1.016;2022-11-20T13:15:53;7.22;;;1.73;;
65717;SDS011;52445;52.466;-1.016;2022-11-20T13:18:27;8.82;;;1.88;;
65717;SDS011;52445;52.466;-1.016;2022-11-20T13:21:01;10.65;;;2.42;;
65717;SDS011;52445;52.466;-1.016;2022-11-20T13:23:28;8.48;;;1.75;;
65717;SDS011;52445;52.466;-1.016;2022-11-20T13:26:03;11.23;;;1.83;;
65717;SDS011;52445;52.466;-1.016;2022-11-20T13:28:31;9.52;;;1.33;;
65717;SDS011;52445;52.466;-1.016;2022-11-20T13:30:58;9.20;;;1.63;;
65717;SDS011;52445;52.466;-1.016;2022-11-20T13:33:33;8.73;;;1.60;;
65717;SDS011;52445;52.466;-1.016;2022-11-20T13:36:03;12.23;;;1.30;;
65717;SDS011;52445;52.466;-1.016;2022-11-20T13:38:41;9.07;;;1.80;;
65717;SDS011;52445;52.466;-1.016;2022-11-20T13:41:10;10.35;;;1.58;;
65717;SDS011;52445;52.466;-1.016;2022-11-20T13:43:58;4.68;;;1.20;;
65717;SDS011;52445;52.466;-1.016;2022-11-20T13:46:44;10.93;;;2.63;;
65717;SDS011;52445;52.466;-1.016;2022-11-20T13:55:18;13.90;;;3.58;;
65717;SDS011;52445;52.466;-1.016;2022-11-20T13:58:02;11.60;;;1.98;;
65717;SDS011;52445;52.466;-1.016;2022-11-20T14:00:57;14.75;;;1.63;;
65717;SDS011;52445;52.466;-1.016;2022-11-20T14:03:29;6.93;;;1.35;;
65717;SDS011;52445;52.466;-1.016;2022-11-20T14:08:55;8.23;;;1.38;;
65717;SDS011;52445;52.466;-1.016;2022-11-20T14:11:23;8.45;;;1.60;;
65717;SDS011;52445;52.466;-1.016;2022-11-20T14:13:52;9.63;;;1.63;;
65717;SDS011;52445;52.466;-1.016;2022-11-20T14:16:23;17.45;;;3.13;;
65717;SDS011;52445;52.466;-1.016;2022-11-20T14:18:50;10.30;;;2.05;;
65717;SDS011;52445;52.466;-1.016;2022-11-20T14:21:25;11.82;;;1.73;;
65717;SDS011;52445;52.466;-1.016;2022-11-20T14:24:10;11.00;;;1.50;;
65717;SDS011;52445;52.466;-1.016;2022-11-20T14:26:42;13.93;;;2.20;;
65717;SDS011;52445;52.466;-1.016;2022-11-20T14:29:14;12.18;;;2.55;;
65717;SDS011;52445;52.466;-1.016;2022-11-20T14:31:42;8.10;;;2.35;;
65717;SDS011;52445;52.466;-1.016;2022-11-20T14:34:20;10.18;;;1.88;;
65717;SDS011;52445;52.466;-1.016;2022-11-20T14:36:52;11.18;;;1.90;;
65717;SDS011;52445;52.466;-1.016;2022-11-20T14:39:25;12.80;;;2.10;;
65717;SDS011;52445;52.466;-1.016;2022-11-20T14:41:58;13.93;;;2.28;;
65717;SDS011;52445;52.466;-1.016;2022-11-20T14:44:30;8.35;;;1.40;;
65717;SDS011;52445;52.466;-1.016;2022-11-20T14:46:59;13.15;;;1.80;;
65717;SDS011;52445;52.466;-1.016;2022-11-20T14:49:29;12.52;;;2.65;;
65717;SDS011;52445;52.466;-1.016;2022-11-20T14:51:59;11.60;;;2.28;;
65717;SDS011;52445;52.466;-1.016;2022-11-20T14:54:27;13.13;;;2.20;;
65717;SDS011;52445;52.466;-1.016;2022-11-20T14:59:33;11.00;;;2.00;;
65717;SDS011;52445;52.466;-1.016;2022-11-20T15:02:03;5.30;;;1.15;;
65717;SDS011;52445;52.466;-1.016;2022-11-20T15:04:32;8.98;;;1.67;;
65717;SDS011;52445;52.466;-1.016;2022-11-20T15:06:58;9.00;;;1.55;;
65717;SDS011;52445;52.466;-1.016;2022-11-20T15:09:26;15.60;;;6.18;;
65717;SDS011;52445;52.466;-1.016;2022-11-20T15:14:30;8.90;;;6.10;;
65717;SDS011;52445;52.466;-1.016;2022-11-20T15:16:58;12.02;;;3.80;;
65717;SDS011;52445;52.466;-1.016;2022-11-20T15:19:25;9.15;;;3.13;;
65717;SDS011;52445;52.466;-1.016;2022-11-20T15:21:53;5.20;;;2.83;;
65717;SDS011;52445;52.466;-1.016;2022-11-20T15:24:19;12.15;;;2.67;;
65717;SDS011;52445;52.466;-1.016;2022-11-20T15:26:47;8.45;;;3.05;;
65717;SDS011;52445;52.466;-1.016;2022-11-20T15:29:14;13.80;;;1.67;;
65717;SDS011;52445;52.466;-1.016;2022-11-20T15:31:45;7.70;;;3.13;;
65717;SDS011;52445;52.466;-1.016;2022-11-20T15:34:11;6.97;;;2.53;;
65717;SDS011;52445;52.466;-1.016;2022-11-20T15:36:39;7.47;;;2.58;;
65717;SDS011;52445;52.466;-1.016;2022-11-20T15:39:06;9.98;;;2.75;;
65717;SDS011;52445;52.466;-1.016;2022-11-20T15:41:34;7.85;;;2.85;;
65717;SDS011;52445;52.466;-1.016;2022-11-20T15:44:01;5.05;;;2.42;;
65717;SDS011;52445;52.466;-1.016;2022-11-20T15:46:29;3.28;;;1.65;;
65717;SDS011;52445;52.466;-1.016;2022-11-20T15:49:03;7.97;;;2.78;;
65717;SDS011;52445;52.466;-1.016;2022-11-20T15:54:09;4.30;;;2.03;;
65717;SDS011;52445;52.466;-1.016;2022-11-20T15:56:38;8.38;;;1.75;;
65717;SDS011;52445;52.466;-1.016;2022-11-20T15:59:04;7.88;;;2.83;;
65717;SDS011;52445;52.466;-1.016;2022-11-20T16:01:31;7.93;;;3.03;;
65717;SDS011;52445;52.466;-1.016;2022-11-20T16:03:58;8.45;;;1.90;;
65717;SDS011;52445;52.466;-1.016;2022-11-20T16:06:26;5.28;;;1.50;;
65717;SDS011;52445;52.466;-1.016;2022-11-20T16:08:52;7.15;;;1.10;;
65717;SDS011;52445;52.466;-1.016;2022-11-20T16:11:19;3.95;;;0.90;;
65717;SDS011;52445;52.466;-1.016;2022-11-20T16:13:46;1.98;;;0.80;;
65717;SDS011;52445;52.466;-1.016;2022-11-20T16:16:33;3.65;;;2.28;;
65717;SDS011;52445;52.466;-1.016;2022-11-20T16:19:01;3.35;;;0.55;;
65717;SDS011;52445;52.466;-1.016;2022-11-20T16:21:28;7.05;;;2.42;;
65717;SDS011;52445;52.466;-1.016;2022-11-20T16:23:58;3.00;;;1.92;;
65717;SDS011;52445;52.466;-1.016;2022-11-20T16:26:26;3.40;;;0.57;;
65717;SDS011;52445;52.466;-1.016;2022-11-20T16:28:53;3.63;;;1.13;;
65717;SDS011;52445;52.466;-1.016;2022-11-20T16:31:20;5.22;;;3.42;;